Latest Weather Observations for Loxton

IDS60801

Issued at 5:31 pm CDT Saturday 13 February 2016 (issued every 30 minutes, with the page automatically refreshed every 10 minutes)

About weather observations | Map of weather stations | Latest weather observations for SA | Other Formats
Station Details ID: 024024 Name: LOXTON RESEARCH CENTRE Lat: -34.44 Lon: 140.60 Height: 30.1 m
Data from the previous 72 hours. | See also: Recent months at Loxton
Date/Time
CDT
Temp
°C
App
Temp
°C
Dew
Point
Rel
Hum
%
Delta-T
°C
Wind Press
QNH
hPa
Press
MSL
hPa
Rain
since 9 am
mm
Dir
 
Spd
km/h
Gust
km/h
Spd
kts
Gust
kts
13/05:30pm 33.5 28.0 9.3 22 13.8 SW 28 39 15 21 1008.4 1008.3 0.0
13/05:00pm 35.1 30.0 9.3 20 14.8 SSW 26 37 14 20 1008.3 1008.2 0.0
13/04:30pm 36.5 31.0 5.8 15 16.8 SSW 24 37 13 20 1007.9 1007.8 0.0
13/04:00pm 37.1 30.4 3.9 13 17.7 SW 28 41 15 22 1007.7 1007.6 0.0
13/03:30pm 38.4 32.4 -1.4 8 19.7 W 20 33 11 18 1007.8 1007.7 0.0
13/03:00pm 37.4 30.6 -2.0 8 19.2 WNW 24 39 13 21 1008.3 1008.2 0.0
13/02:30pm 36.9 30.6 -5.6 6 19.5 W 19 30 10 16 1008.8 1008.7 0.0
13/02:00pm 37.0 31.1 -5.2 6 19.5 WNW 17 26 9 14 1009.1 1009.0 0.0
13/01:30pm 35.6 30.1 -2.0 9 18.1 WNW 17 24 9 13 1009.4 1009.3 0.0
13/01:00pm 34.6 30.5 2.1 13 16.6 WNW 13 22 7 12 1009.8 1009.7 0.0
13/12:30pm 33.9 29.7 1.6 13 16.3 WNW 13 24 7 13 1010.3 1010.2 0.0
13/12:00pm 31.5 27.4 2.2 15 14.7 W 13 19 7 10 1010.7 1010.6 0.0
13/11:30am 31.5 28.2 2.6 16 14.6 WNW 9 19 5 10 1011.2 1011.1 0.0
13/11:00am 30.2 27.1 3.8 18 13.5 W 9 17 5 9 1011.5 1011.4 0.0
13/10:30am 29.0 25.7 4.4 21 12.6 WSW 11 17 6 9 1011.6 1011.5 0.0
13/10:00am 27.9 25.3 6.2 25 11.4 SW 9 13 5 7 1011.9 1011.8 0.0
13/09:30am 25.8 23.8 8.6 33 9.3 SW 9 15 5 8 1012.1 1012.0 0.0
13/09:00am 23.6 21.7 10.4 43 7.3 SSW 11 15 6 8 1012.0 1011.9 0.0
13/08:30am 22.0 21.8 10.3 47 6.4 SW 2 6 1 3 1011.7 1011.6 0.0
13/08:00am 19.9 18.6 10.0 53 5.3 WNW 7 9 4 5 1011.4 1011.3 0.0
13/07:30am 17.5 17.3 11.9 69 3.1 NNW 4 6 2 3 1011.1 1011.0 0.0
13/07:00am 15.2 14.4 11.1 76 2.2 NNW 6 7 3 4 1011.2 1011.1 0.0
13/06:30am 14.6 15.0 11.4 81 1.7 CALM 0 0 0 0 1011.2 1011.1 0.0
13/06:00am 15.4 14.7 11.3 76 2.2 W 6 7 3 4 1011.0 1010.9 0.0
13/05:30am 15.6 15.0 11.7 77 2.1 W 6 7 3 4 1010.8 1010.7 0.0
13/05:00am 16.6 15.9 11.4 71 2.8 W 6 7 3 4 1010.3 1010.2 0.0
13/04:30am 15.8 16.3 11.7 76 2.2 CALM 0 0 0 0 1010.0 1009.9 0.0
13/04:00am 15.7 16.1 11.4 75 2.3 CALM 0 0 0 0 1010.1 1010.0 0.0
13/03:30am 16.1 16.7 11.9 76 2.3 CALM 0 0 0 0 1010.1 1010.0 0.0
13/03:00am 16.1 16.5 11.3 73 2.6 CALM 0 0 0 0 1010.5 1010.4 0.0
13/02:30am 16.7 17.1 11.1 69 3.0 CALM 0 0 0 0 1010.7 1010.6 0.0
13/02:00am 17.1 17.5 11.4 69 3.1 CALM 0 0 0 0 1010.9 1010.8 0.0
13/01:30am 18.4 19.0 11.9 66 3.6 CALM 0 0 0 0 1011.0 1010.9 0.0
13/01:00am 20.1 20.4 10.8 55 5.1 CALM 0 0 0 0 1011.2 1011.1 0.0
13/12:30am 22.6 21.1 9.2 42 7.2 SW 7 11 4 6 1011.4 1011.3 0.0
13/12:00am 24.3 21.7 9.2 38 8.2 SSW 13 20 7 11 1011.6 1011.5 0.0
 
Date/Time
CDT
Temp
°C
App
Temp
°C
Dew
Point
Rel
Hum
%
Delta-T
°C
Wind Press
QNH
hPa
Press
MSL
hPa
Rain
since 9 am
mm
Dir
 
Spd
km/h
Gust
km/h
Spd
kts
Gust
kts
12/11:30pm 25.2 22.1 8.8 35 8.9 SSW 15 20 8 11 1011.4 1011.3 0.0
12/11:00pm 26.5 22.7 7.6 30 10.1 SSW 17 24 9 13 1011.2 1011.1 0.0
12/10:30pm 27.3 22.9 6.4 26 11.0 SSW 19 26 10 14 1011.1 1011.0 0.0
12/10:27pm 27.2 22.6 6.5 26 10.9 SSW 20 30 11 16 1011.1 1011.0 0.0
12/10:00pm 22.2 23.1 12.8 55 5.4 CALM 0 0 0 0 1010.6 1010.5 0.0
12/09:30pm 23.3 24.3 13.1 52 5.9 CALM 0 0 0 0 1010.5 1010.4 0.0
12/09:00pm 25.0 26.0 13.2 48 6.9 CALM 0 0 0 0 1010.3 1010.2 0.0
12/08:30pm 26.4 27.6 13.9 46 7.4 CALM 0 0 0 0 1010.1 1010.0 0.0
12/08:00pm 30.5 31.6 13.5 35 10.2 CALM 0 0 0 0 1010.0 1009.9 0.0
12/07:30pm 35.0 34.1 7.6 18 15.3 W 2 6 1 3 1009.9 1009.8 0.0
12/07:00pm 35.6 32.7 2.6 12 17.1 W 7 13 4 7 1009.7 1009.6 0.0
12/06:30pm 35.9 32.1 1.7 11 17.5 W 11 15 6 8 1009.6 1009.5 0.0
12/06:00pm 35.7 32.6 3.6 13 16.9 NW 9 15 5 8 1009.6 1009.5 0.0
12/05:30pm 35.7 33.4 5.8 15 16.3 NNW 7 15 4 8 1009.9 1009.8 0.0
12/05:00pm 36.2 32.7 3.3 13 17.3 WSW 11 20 6 11 1010.0 1009.9 0.0
12/04:30pm 35.9 30.9 1.2 11 17.6 WSW 17 20 9 11 1010.1 1010.0 0.0
12/04:00pm 36.0 30.7 1.9 12 17.5 WSW 19 28 10 15 1010.3 1010.2 0.0
12/03:30pm 35.6 33.3 5.9 16 16.2 SSW 7 15 4 8 1010.5 1010.4 0.0
12/03:00pm 34.1 31.6 6.4 18 15.1 SSE 9 17 5 9 1011.0 1010.9 0.0
12/02:30pm 34.6 31.7 6.5 17 15.4 S 11 17 6 9 1011.5 1011.4 0.0
12/02:00pm 33.3 30.9 7.1 19 14.4 S 9 13 5 7 1012.0 1011.9 0.0
12/01:30pm 32.4 30.4 7.2 21 13.8 N 7 13 4 7 1012.8 1012.6 0.0
12/01:00pm 31.4 28.9 8.3 23 12.8 ENE 11 15 6 8 1013.1 1012.9 0.0
12/12:30pm 31.2 30.2 10.4 27 11.9 SSW 6 9 3 5 1013.5 1013.3 0.0
12/12:00pm 30.2 29.6 11.6 31 10.8 NE 6 9 3 5 1013.9 1013.7 0.0
12/11:30am 28.8 27.3 10.7 32 10.3 ENE 9 13 5 7 1014.3 1014.1 0.0
12/11:00am 27.4 26.4 11.0 36 9.3 NE 7 15 4 8 1014.6 1014.4 0.0
12/10:30am 26.5 24.7 10.9 37 8.8 E 11 20 6 11 1014.6 1014.4 0.0
12/10:00am 24.9 22.8 11.0 41 7.8 E 13 19 7 10 1014.6 1014.4 0.0
12/09:30am 23.2 20.9 11.6 48 6.5 SE 15 22 8 12 1014.9 1014.7 0.0
12/09:00am 21.9 19.3 11.9 53 5.6 SE 17 20 9 11 1015.1 1014.9 0.0
12/08:30am 20.4 18.1 11.8 57 4.8 SE 15 20 8 11 1015.1 1014.9 0.0
12/08:00am 18.9 17.1 12.0 64 3.8 SSE 13 19 7 10 1015.0 1014.8 0.0
12/07:30am 17.1 15.3 12.0 72 2.8 S 13 20 7 11 1014.8 1014.6 0.0
12/07:00am 16.4 14.6 12.0 75 2.4 SSW 13 19 7 10 1014.7 1014.5 0.0
12/06:30am 16.4 14.6 12.0 75 2.4 SSW 13 20 7 11 1014.4 1014.2 0.0
12/06:00am 16.2 15.2 12.2 77 2.2 SSW 9 13 5 7 1013.9 1013.7 0.0
12/05:30am 16.6 15.6 12.2 75 2.4 SSW 9 15 5 8 1013.6 1013.4 0.0
12/05:00am 16.8 15.8 12.3 75 2.5 SW 9 11 5 6 1013.4 1013.2 0.0
12/04:30am 17.0 16.0 12.3 74 2.6 SW 9 15 5 8 1013.2 1013.0 0.0
12/04:00am 17.5 15.7 12.1 70 3.0 SW 13 19 7 10 1013.3 1013.1 0.0
12/03:30am 18.3 17.0 12.4 68 3.3 WSW 11 15 6 8 1013.4 1013.2 0.0
12/03:00am 18.6 17.4 12.7 68 3.3 SSW 11 19 6 10 1013.5 1013.3 0.0
12/02:30am 19.0 17.3 12.6 66 3.6 SSW 13 19 7 10 1013.5 1013.3 0.0
12/02:00am 19.3 18.1 12.7 65 3.7 SSW 11 17 6 9 1013.7 1013.5 0.0
12/01:30am 19.9 18.2 12.6 63 4.1 SSW 13 20 7 11 1013.9 1013.7 0.0
12/01:00am 20.4 18.4 12.8 61 4.3 SSW 15 20 8 11 1014.3 1014.1 0.0
12/12:30am 21.0 19.4 12.7 59 4.7 SSW 13 20 7 11 1014.3 1014.1 0.0
12/12:00am 21.6 19.2 12.6 56 5.1 SSW 17 22 9 12 1014.3 1014.1 0.0
 
Date/Time
CDT
Temp
°C
App
Temp
°C
Dew
Point
Rel
Hum
%
Delta-T
°C
Wind Press
QNH
hPa
Press
MSL
hPa
Rain
since 9 am
mm
Dir
 
Spd
km/h
Gust
km/h
Spd
kts
Gust
kts
11/11:30pm 22.1 19.7 12.6 55 5.4 SSW 17 24 9 13 1014.3 1014.1 0.0
11/11:00pm 23.0 20.6 12.5 51 6.0 SSW 17 26 9 14 1014.2 1014.0 0.0
11/10:30pm 24.2 20.7 12.1 46 6.9 SSW 22 33 12 18 1014.1 1013.9 0.0
11/10:00pm 25.3 22.0 12.7 45 7.3 SSW 22 33 12 18 1014.0 1013.8 0.0
11/09:30pm 26.8 23.7 12.1 40 8.5 SSW 20 32 11 17 1013.5 1013.3 0.0
11/09:00pm 28.3 24.4 9.4 30 10.5 SW 20 35 11 19 1013.0 1012.8 0.0
11/08:30pm 29.8 25.1 3.3 18 13.4 SSW 17 24 9 13 1012.4 1012.3 0.0
11/08:00pm 30.5 26.7 4.1 18 13.6 SSW 13 17 7 9 1012.0 1011.9 0.0
11/07:30pm 31.3 27.7 5.0 19 13.8 SSW 13 19 7 10 1011.7 1011.6 0.0
11/07:00pm 33.2 29.1 4.5 16 15.1 SSW 15 22 8 12 1011.5 1011.4 0.0
11/06:30pm 34.0 30.4 4.9 16 15.5 SSW 13 20 7 11 1011.2 1011.1 0.0
11/06:00pm 34.3 30.7 5.2 16 15.6 SW 13 20 7 11 1011.1 1011.0 0.0
11/05:30pm 34.9 31.2 4.7 15 16.1 SSW 13 20 7 11 1011.1 1011.0 0.0
11/05:00pm 34.6 31.2 4.0 14 16.1 S 11 17 6 9 1011.2 1011.1 0.0
11/04:30pm 34.6 31.1 3.3 14 16.3 SSW 11 17 6 9 1011.3 1011.2 0.0
11/04:00pm 34.4 31.3 5.4 16 15.6 ESE 11 17 6 9 1011.5 1011.4 0.0
11/03:30pm 34.4 31.7 5.4 16 15.6 SSE 9 17 5 9 1011.6 1011.5 0.0
11/03:00pm 34.0 30.2 3.8 15 15.8 SSW 13 22 7 12 1012.1 1012.0 0.0
11/02:30pm 33.6 30.5 5.4 17 15.1 S 11 24 6 13 1012.4 1012.3 0.0
11/02:00pm 33.0 29.6 6.1 18 14.5 SE 13 24 7 13 1012.8 1012.6 0.0
11/01:30pm 32.2 29.3 8.0 22 13.4 SSE 13 20 7 11 1013.3 1013.1 0.0
11/01:00pm 31.7 29.0 9.1 24 12.7 SE 13 20 7 11 1013.4 1013.2 0.0
11/12:30pm 29.9 27.0 9.6 28 11.4 SE 15 20 8 11 1013.9 1013.7 0.0
11/12:00pm 29.3 26.4 9.7 29 11.0 SE 15 26 8 14 1014.2 1014.0 0.0
11/11:30am 28.0 24.7 9.4 31 10.3 SE 17 24 9 13 1014.7 1014.5 0.0
11/11:00am 26.9 23.7 9.8 34 9.5 SE 17 24 9 13 1015.4 1015.2 0.0
11/10:30am 25.5 22.2 9.7 37 8.7 SSE 17 24 9 13 1015.8 1015.6 0.0
11/10:00am 24.1 20.9 10.1 41 7.7 SSE 17 24 9 13 1016.0 1015.8 0.0
11/09:30am 22.5 19.4 10.2 45 6.7 SSE 17 24 9 13 1015.7 1015.5 0.0
11/09:00am 20.7 17.4 10.8 53 5.4 SSE 19 28 10 15 1015.6 1015.4 0.0
11/08:30am 19.3 15.3 10.6 57 4.7 SSE 22 32 12 17 1015.4 1015.2 0.0
11/08:00am 17.8 14.3 10.9 64 3.7 S 20 26 11 14 1015.3 1015.1 0.0
11/07:30am 16.5 14.4 11.1 70 2.9 S 13 20 7 11 1015.0 1014.8 0.0
11/07:00am 15.8 13.7 11.1 73 2.5 SSW 13 17 7 9 1014.9 1014.7 0.0
11/06:30am 15.9 13.8 11.0 72 2.6 SSW 13 22 7 12 1014.6 1014.4 0.0
11/06:00am 16.3 13.8 11.1 71 2.8 SSW 15 20 8 11 1014.2 1014.0 0.0
11/05:30am 16.7 14.5 10.9 68 3.1 SSW 13 19 7 10 1013.7 1013.5 0.0
11/05:00am 17.0 14.8 10.9 67 3.3 SSW 13 19 7 10 1013.3 1013.1 0.0
11/04:30am 17.4 14.9 10.9 65 3.5 SSW 15 20 8 11 1013.2 1013.0 0.0
11/04:00am 17.8 15.3 11.0 64 3.7 SSW 15 20 8 11 1013.1 1012.9 0.0
11/03:30am 18.2 15.6 10.8 62 4.0 SSW 15 20 8 11 1012.9 1012.7 0.0
11/03:00am 18.4 16.5 10.6 60 4.2 SW 11 15 6 8 1013.0 1012.8 0.0
11/02:30am 18.6 16.7 10.6 59 4.3 SW 11 17 6 9 1012.9 1012.7 0.0
11/02:00am 19.1 16.8 10.6 58 4.6 SW 13 19 7 10 1013.0 1012.8 0.0
11/01:30am 19.5 17.2 10.4 55 4.9 SSW 13 17 7 9 1013.0 1012.8 0.0
11/01:00am 20.3 17.9 10.1 52 5.5 SW 13 17 7 9 1013.1 1012.9 0.0
11/12:30am 21.0 18.2 9.9 49 6.0 SSW 15 19 8 10 1013.2 1013.0 0.0
11/12:00am 22.1 18.9 9.9 46 6.6 SSW 17 28 9 15 1013.1 1012.9 0.0
 
Date/Time
CDT
Temp
°C
App
Temp
°C
Dew
Point
Rel
Hum
%
Delta-T
°C
Wind Press
QNH
hPa
Press
MSL
hPa
Rain
since 9 am
mm
Dir
 
Spd
km/h
Gust
km/h
Spd
kts
Gust
kts
10/11:30pm 22.8 19.9 10.9 47 6.6 SSW 17 22 9 12 1013.1 1012.9 0.0
10/11:00pm 23.8 20.9 11.1 44 7.1 SW 17 24 9 13 1013.3 1013.1 0.0
10/10:30pm 25.2 21.4 11.0 41 8.0 SSW 22 37 12 20 1013.0 1012.8 0.0
10/10:00pm 26.3 22.8 10.1 36 9.0 SSW 19 28 10 15 1012.9 1012.7 0.0
10/09:30pm 27.4 24.2 10.1 33 9.7 SSW 17 24 9 13 1012.6 1012.5 0.0
10/09:00pm 28.6 23.5 1.0 17 13.3 SW 17 24 9 13 1012.3 1012.2 0.0
10/08:30pm 29.8 25.4 0.6 15 14.1 SSW 13 19 7 10 1012.0 1011.9 0.0
10/08:00pm 31.6 25.9 -0.5 12 15.4 SSW 19 26 10 14 1011.6 1011.5 0.0
10/07:30pm 32.5 27.7 2.6 15 15.2 SSW 17 26 9 14 1011.3 1011.2 0.0
10/07:00pm 33.2 29.1 4.2 16 15.2 SSW 15 20 8 11 1011.1 1011.0 0.0
10/06:30pm 33.8 29.8 5.1 16 15.3 SSW 15 24 8 13 1010.8 1010.7 0.0
10/06:00pm 35.0 31.2 6.0 16 15.8 SW 15 22 8 12 1010.7 1010.6 0.0

Other Formats:

Comma delimited format used in spreadsheet applications
http://www.bom.gov.au/fwo/IDS60801/IDS60801.94682.axf

JavaScript Object Notation format (JSON) in row-major order
http://www.bom.gov.au/fwo/IDS60801/IDS60801.94682.json